Aviation Digital Data Service (ADDS)

Output produced by METARs form (0116 UTC 05 July 2022)
found at http://www.aviationweather.gov/metar/data/
 
METAR text: WIII 050100Z 16004KT 5000 HZ FEW020 28/26 Q1009 NOSIG
Conditions at: WIII (SOEKARNO-HATTA I, ID) observed 0100 UTC 05 July 2022
Temperature: 28.0°C (82°F)
Dewpoint: 26.0°C (79°F) [RH = 89%]
Pressure (altimeter): 29.79 inches Hg (1009.0 mb)
Winds: from the SSE (160 degrees) at 5 MPH (4 knots; 2.1 m/s)
Visibility: 3 miles ( 5 km)
Ceiling: at least 12,000 feet AGL
Clouds: few clouds at 2000 feet AGL
Weather: HZ  (haze)

METAR text: WIII 050030Z 17005KT 4500 HZ FEW020 27/25 Q1009 NOSIG
Conditions at: WIII (SOEKARNO-HATTA I, ID) observed 0030 UTC 05 July 2022
Temperature: 27.0°C (81°F)
Dewpoint: 25.0°C (77°F) [RH = 89%]
Pressure (altimeter): 29.79 inches Hg (1009.0 mb)
Winds: from the S (170 degrees) at 6 MPH (5 knots; 2.6 m/s)
Visibility: 2.80 miles (4.51 km)
Ceiling: at least 12,000 feet AGL
Clouds: few clouds at 2000 feet AGL
Weather: HZ  (haze)

METAR text: WIII 050000Z 20005KT 3600 BR FEW020 26/25 Q1009 NOSIG
Conditions at: WIII (SOEKARNO-HATTA I, ID) observed 0000 UTC 05 July 2022
Temperature: 26.0°C (79°F)
Dewpoint: 25.0°C (77°F) [RH = 94%]
Pressure (altimeter): 29.79 inches Hg (1009.0 mb)
Winds: from the SSW (200 degrees) at 6 MPH (5 knots; 2.6 m/s)
Visibility: 2.24 miles (3.60 km)
Ceiling: at least 12,000 feet AGL
Clouds: few clouds at 2000 feet AGL
Weather: BR  (mist)

METAR text: WIII 042330Z 21003KT 3700 BR FEW020 26/25 Q1009 NOSIG
Conditions at: WIII (SOEKARNO-HATTA I, ID) observed 2330 UTC 04 July 2022
Temperature: 26.0°C (79°F)
Dewpoint: 25.0°C (77°F) [RH = 94%]
Pressure (altimeter): 29.79 inches Hg (1009.0 mb)
Winds: from the SSW (210 degrees) at 3 MPH (3 knots; 1.5 m/s)
Visibility: 2.30 miles (3.70 km)
Ceiling: at least 12,000 feet AGL
Clouds: few clouds at 2000 feet AGL
Weather: BR  (mist)

METAR text: WIII 042300Z 20004KT 4000 BR FEW020 26/25 Q1008 NOSIG
Conditions at: WIII (SOEKARNO-HATTA I, ID) observed 2300 UTC 04 July 2022
Temperature: 26.0°C (79°F)
Dewpoint: 25.0°C (77°F) [RH = 94%]
Pressure (altimeter): 29.76 inches Hg (1008.0 mb)
Winds: from the SSW (200 degrees) at 5 MPH (4 knots; 2.1 m/s)
Visibility: 2.49 miles (4.01 km)
Ceiling: at least 12,000 feet AGL
Clouds: few clouds at 2000 feet AGL
Weather: BR  (mist)

METAR text: WIII 042230Z 18003KT 3900 BR FEW020 26/25 Q1008 NOSIG
Conditions at: WIII (SOEKARNO-HATTA I, ID) observed 2230 UTC 04 July 2022
Temperature: 26.0°C (79°F)
Dewpoint: 25.0°C (77°F) [RH = 94%]
Pressure (altimeter): 29.76 inches Hg (1008.0 mb)
Winds: from the S (180 degrees) at 3 MPH (3 knots; 1.5 m/s)
Visibility: 2.42 miles (3.89 km)
Ceiling: at least 12,000 feet AGL
Clouds: few clouds at 2000 feet AGL
Weather: BR  (mist)

METAR text: WIII 042200Z 18003KT 4200 BR FEW020 26/25 Q1008 NOSIG
Conditions at: WIII (SOEKARNO-HATTA I, ID) observed 2200 UTC 04 July 2022
Temperature: 26.0°C (79°F)
Dewpoint: 25.0°C (77°F) [RH = 94%]
Pressure (altimeter): 29.76 inches Hg (1008.0 mb)
Winds: from the S (180 degrees) at 3 MPH (3 knots; 1.5 m/s)
Visibility: 2.61 miles (4.20 km)
Ceiling: at least 12,000 feet AGL
Clouds: few clouds at 2000 feet AGL
Weather: BR  (mist)

METAR text: WIII 042130Z 17003KT 4100 BR FEW020 26/25 Q1008 NOSIG
Conditions at: WIII (SOEKARNO-HATTA I, ID) observed 2130 UTC 04 July 2022
Temperature: 26.0°C (79°F)
Dewpoint: 25.0°C (77°F) [RH = 94%]
Pressure (altimeter): 29.76 inches Hg (1008.0 mb)
Winds: from the S (170 degrees) at 3 MPH (3 knots; 1.5 m/s)
Visibility: 2.55 miles (4.10 km)
Ceiling: at least 12,000 feet AGL
Clouds: few clouds at 2000 feet AGL
Weather: BR  (mist)

METAR text: WIII 042100Z 20003KT 4400 BR FEW020 26/25 Q1008 NOSIG
Conditions at: WIII (SOEKARNO-HATTA I, ID) observed 2100 UTC 04 July 2022
Temperature: 26.0°C (79°F)
Dewpoint: 25.0°C (77°F) [RH = 94%]
Pressure (altimeter): 29.76 inches Hg (1008.0 mb)
Winds: from the SSW (200 degrees) at 3 MPH (3 knots; 1.5 m/s)
Visibility: 2.73 miles (4.39 km)
Ceiling: at least 12,000 feet AGL
Clouds: few clouds at 2000 feet AGL
Weather: BR  (mist)

METAR text: WIII 042030Z 16003KT 4700 BR FEW020 26/25 Q1008 NOSIG
Conditions at: WIII (SOEKARNO-HATTA I, ID) observed 2030 UTC 04 July 2022
Temperature: 26.0°C (79°F)
Dewpoint: 25.0°C (77°F) [RH = 94%]
Pressure (altimeter): 29.76 inches Hg (1008.0 mb)
Winds: from the SSE (160 degrees) at 3 MPH (3 knots; 1.5 m/s)
Visibility: 2.92 miles (4.70 km)
Ceiling: at least 12,000 feet AGL
Clouds: few clouds at 2000 feet AGL
Weather: BR  (mist)

METAR text: WIII 042000Z 20003KT 6000 FEW020 27/26 Q1008 NOSIG
Conditions at: WIII (SOEKARNO-HATTA I, ID) observed 2000 UTC 04 July 2022
Temperature: 27.0°C (81°F)
Dewpoint: 26.0°C (79°F) [RH = 94%]
Pressure (altimeter): 29.76 inches Hg (1008.0 mb)
Winds: from the SSW (200 degrees) at 3 MPH (3 knots; 1.5 m/s)
Visibility: 4 miles ( 6 km)
Ceiling: at least 12,000 feet AGL
Clouds: few clouds at 2000 feet AGL
Weather: no significant weather observed at this time

METAR text: WIII 041930Z VRB03KT 6000 FEW020 27/26 Q1008 NOSIG
Conditions at: WIII (SOEKARNO-HATTA I, ID) observed 1930 UTC 04 July 2022
Temperature: 27.0°C (81°F)
Dewpoint: 26.0°C (79°F) [RH = 94%]
Pressure (altimeter): 29.76 inches Hg (1008.0 mb)
Winds: variable direction winds at 3 MPH (3 knots; 1.5 m/s)
Visibility: 4 miles ( 6 km)
Ceiling: at least 12,000 feet AGL
Clouds: few clouds at 2000 feet AGL
Weather: no significant weather observed at this time

METAR text: WIII 041900Z 11003KT 5000 HZ FEW020 28/27 Q1008 NOSIG
Conditions at: WIII (SOEKARNO-HATTA I, ID) observed 1900 UTC 04 July 2022
Temperature: 28.0°C (82°F)
Dewpoint: 27.0°C (81°F) [RH = 94%]
Pressure (altimeter): 29.76 inches Hg (1008.0 mb)
Winds: from the ESE (110 degrees) at 3 MPH (3 knots; 1.5 m/s)
Visibility: 3 miles ( 5 km)
Ceiling: at least 12,000 feet AGL
Clouds: few clouds at 2000 feet AGL
Weather: HZ  (haze)

METAR text: WIII 041830Z VRB03KT 5000 HZ FEW020 28/26 Q1008 NOSIG
Conditions at: WIII (SOEKARNO-HATTA I, ID) observed 1830 UTC 04 July 2022
Temperature: 28.0°C (82°F)
Dewpoint: 26.0°C (79°F) [RH = 89%]
Pressure (altimeter): 29.76 inches Hg (1008.0 mb)
Winds: variable direction winds at 3 MPH (3 knots; 1.5 m/s)
Visibility: 3 miles ( 5 km)
Ceiling: at least 12,000 feet AGL
Clouds: few clouds at 2000 feet AGL
Weather: HZ  (haze)

METAR text: WIII 041800Z VRB02KT 6000 FEW020 27/26 Q1008 NOSIG
Conditions at: WIII (SOEKARNO-HATTA I, ID) observed 1800 UTC 04 July 2022
Temperature: 27.0°C (81°F)
Dewpoint: 26.0°C (79°F) [RH = 94%]
Pressure (altimeter): 29.76 inches Hg (1008.0 mb)
Winds: variable direction winds at 2 MPH (2 knots; 1.0 m/s)
Visibility: 4 miles ( 6 km)
Ceiling: at least 12,000 feet AGL
Clouds: few clouds at 2000 feet AGL
Weather: no significant weather observed at this time

METAR text: WIII 041730Z VRB04KT 6000 FEW020 28/26 Q1008 NOSIG
Conditions at: WIII (SOEKARNO-HATTA I, ID) observed 1730 UTC 04 July 2022
Temperature: 28.0°C (82°F)
Dewpoint: 26.0°C (79°F) [RH = 89%]
Pressure (altimeter): 29.76 inches Hg (1008.0 mb)
Winds: variable direction winds at 5 MPH (4 knots; 2.1 m/s)
Visibility: 4 miles ( 6 km)
Ceiling: at least 12,000 feet AGL
Clouds: few clouds at 2000 feet AGL
Weather: no significant weather observed at this time

METAR text: WIII 041700Z 11005KT 6000 FEW020 28/26 Q1009 NOSIG
Conditions at: WIII (SOEKARNO-HATTA I, ID) observed 1700 UTC 04 July 2022
Temperature: 28.0°C (82°F)
Dewpoint: 26.0°C (79°F) [RH = 89%]
Pressure (altimeter): 29.79 inches Hg (1009.0 mb)
Winds: from the ESE (110 degrees) at 6 MPH (5 knots; 2.6 m/s)
Visibility: 4 miles ( 6 km)
Ceiling: at least 12,000 feet AGL
Clouds: few clouds at 2000 feet AGL
Weather: no significant weather observed at this time

METAR text: WIII 041630Z 12004KT 6000 FEW020 28/26 Q1009 NOSIG
Conditions at: WIII (SOEKARNO-HATTA I, ID) observed 1630 UTC 04 July 2022
Temperature: 28.0°C (82°F)
Dewpoint: 26.0°C (79°F) [RH = 89%]
Pressure (altimeter): 29.79 inches Hg (1009.0 mb)
Winds: from the ESE (120 degrees) at 5 MPH (4 knots; 2.1 m/s)
Visibility: 4 miles ( 6 km)
Ceiling: at least 12,000 feet AGL
Clouds: few clouds at 2000 feet AGL
Weather: no significant weather observed at this time

METAR text: WIII 041600Z 11003KT 6000 FEW020 27/26 Q1009 NOSIG
Conditions at: WIII (SOEKARNO-HATTA I, ID) observed 1600 UTC 04 July 2022
Temperature: 27.0°C (81°F)
Dewpoint: 26.0°C (79°F) [RH = 94%]
Pressure (altimeter): 29.79 inches Hg (1009.0 mb)
Winds: from the ESE (110 degrees) at 3 MPH (3 knots; 1.5 m/s)
Visibility: 4 miles ( 6 km)
Ceiling: at least 12,000 feet AGL
Clouds: few clouds at 2000 feet AGL
Weather: no significant weather observed at this time

METAR text: WIII 041530Z 09005KT 6000 FEW020 27/26 Q1009 NOSIG
Conditions at: WIII (SOEKARNO-HATTA I, ID) observed 1530 UTC 04 July 2022
Temperature: 27.0°C (81°F)
Dewpoint: 26.0°C (79°F) [RH = 94%]
Pressure (altimeter): 29.79 inches Hg (1009.0 mb)
Winds: from the E (90 degrees) at 6 MPH (5 knots; 2.6 m/s)
Visibility: 4 miles ( 6 km)
Ceiling: at least 12,000 feet AGL
Clouds: few clouds at 2000 feet AGL
Weather: no significant weather observed at this time

METAR text: WIII 041500Z 07005KT 7000 FEW020 27/26 Q1009 NOSIG
Conditions at: WIII (SOEKARNO-HATTA I, ID) observed 1500 UTC 04 July 2022
Temperature: 27.0°C (81°F)
Dewpoint: 26.0°C (79°F) [RH = 94%]
Pressure (altimeter): 29.79 inches Hg (1009.0 mb)
Winds: from the ENE (70 degrees) at 6 MPH (5 knots; 2.6 m/s)
Visibility: 4 miles ( 7 km)
Ceiling: at least 12,000 feet AGL
Clouds: few clouds at 2000 feet AGL
Weather: no significant weather observed at this time

METAR text: WIII 041430Z 07007KT 8000 FEW020 28/26 Q1009 NOSIG
Conditions at: WIII (SOEKARNO-HATTA I, ID) observed 1430 UTC 04 July 2022
Temperature: 28.0°C (82°F)
Dewpoint: 26.0°C (79°F) [RH = 89%]
Pressure (altimeter): 29.79 inches Hg (1009.0 mb)
Winds: from the ENE (70 degrees) at 8 MPH (7 knots; 3.6 m/s)
Visibility: 5 miles ( 8 km)
Ceiling: at least 12,000 feet AGL
Clouds: few clouds at 2000 feet AGL
Weather: no significant weather observed at this time

METAR text: WIII 041400Z 09006KT 8000 FEW020 27/25 Q1008 NOSIG
Conditions at: WIII (SOEKARNO-HATTA I, ID) observed 1400 UTC 04 July 2022
Temperature: 27.0°C (81°F)
Dewpoint: 25.0°C (77°F) [RH = 89%]
Pressure (altimeter): 29.76 inches Hg (1008.0 mb)
Winds: from the E (90 degrees) at 7 MPH (6 knots; 3.1 m/s)
Visibility: 5 miles ( 8 km)
Ceiling: at least 12,000 feet AGL
Clouds: few clouds at 2000 feet AGL
Weather: no significant weather observed at this time

METAR text: WIII 041330Z 07006KT 8000 FEW020 27/25 Q1008 NOSIG
Conditions at: WIII (SOEKARNO-HATTA I, ID) observed 1330 UTC 04 July 2022
Temperature: 27.0°C (81°F)
Dewpoint: 25.0°C (77°F) [RH = 89%]
Pressure (altimeter): 29.76 inches Hg (1008.0 mb)
Winds: from the ENE (70 degrees) at 7 MPH (6 knots; 3.1 m/s)
Visibility: 5 miles ( 8 km)
Ceiling: at least 12,000 feet AGL
Clouds: few clouds at 2000 feet AGL
Weather: no significant weather observed at this time

METAR text: WIII 041300Z 07007KT 9000 FEW020 28/26 Q1008 NOSIG
Conditions at: WIII (SOEKARNO-HATTA I, ID) observed 1300 UTC 04 July 2022
Temperature: 28.0°C (82°F)
Dewpoint: 26.0°C (79°F) [RH = 89%]
Pressure (altimeter): 29.76 inches Hg (1008.0 mb)
Winds: from the ENE (70 degrees) at 8 MPH (7 knots; 3.6 m/s)
Visibility: 6 miles ( 9 km)
Ceiling: at least 12,000 feet AGL
Clouds: few clouds at 2000 feet AGL
Weather: no significant weather observed at this time

METAR text: WIII 041230Z 08007KT 9000 FEW020 28/25 Q1007 NOSIG
Conditions at: WIII (SOEKARNO-HATTA I, ID) observed 1230 UTC 04 July 2022
Temperature: 28.0°C (82°F)
Dewpoint: 25.0°C (77°F) [RH = 84%]
Pressure (altimeter): 29.73 inches Hg (1007.0 mb)
Winds: from the E (80 degrees) at 8 MPH (7 knots; 3.6 m/s)
Visibility: 6 miles ( 9 km)
Ceiling: at least 12,000 feet AGL
Clouds: few clouds at 2000 feet AGL
Weather: no significant weather observed at this time

METAR text: WIII 041200Z 07008KT 9000 FEW020 28/26 Q1007 NOSIG
Conditions at: WIII (SOEKARNO-HATTA I, ID) observed 1200 UTC 04 July 2022
Temperature: 28.0°C (82°F)
Dewpoint: 26.0°C (79°F) [RH = 89%]
Pressure (altimeter): 29.73 inches Hg (1007.0 mb)
Winds: from the ENE (70 degrees) at 9 MPH (8 knots; 4.1 m/s)
Visibility: 6 miles ( 9 km)
Ceiling: at least 12,000 feet AGL
Clouds: few clouds at 2000 feet AGL
Weather: no significant weather observed at this time

METAR text: WIII 041130Z 06007KT 9000 FEW020 28/26 Q1007 NOSIG
Conditions at: WIII (SOEKARNO-HATTA I, ID) observed 1130 UTC 04 July 2022
Temperature: 28.0°C (82°F)
Dewpoint: 26.0°C (79°F) [RH = 89%]
Pressure (altimeter): 29.73 inches Hg (1007.0 mb)
Winds: from the ENE (60 degrees) at 8 MPH (7 knots; 3.6 m/s)
Visibility: 6 miles ( 9 km)
Ceiling: at least 12,000 feet AGL
Clouds: few clouds at 2000 feet AGL
Weather: no significant weather observed at this time

METAR text: WIII 041100Z 06011KT 9000 FEW020 30/25 Q1007 NOSIG
Conditions at: WIII (SOEKARNO-HATTA I, ID) observed 1100 UTC 04 July 2022
Temperature: 30.0°C (86°F)
Dewpoint: 25.0°C (77°F) [RH = 75%]
Pressure (altimeter): 29.73 inches Hg (1007.0 mb)
Winds: from the ENE (60 degrees) at 13 MPH (11 knots; 5.7 m/s)
Visibility: 6 miles ( 9 km)
Ceiling: at least 12,000 feet AGL
Clouds: few clouds at 2000 feet AGL
Weather: no significant weather observed at this time

METAR text: WIII 041030Z 06013KT 9999 FEW020 30/25 Q1007 NOSIG
Conditions at: WIII (SOEKARNO-HATTA I, ID) observed 1030 UTC 04 July 2022
Temperature: 30.0°C (86°F)
Dewpoint: 25.0°C (77°F) [RH = 75%]
Pressure (altimeter): 29.73 inches Hg (1007.0 mb)
Winds: from the ENE (60 degrees) at 15 MPH (13 knots; 6.7 m/s)
Visibility: 6 or more miles (10+ km)
Ceiling: at least 12,000 feet AGL
Clouds: few clouds at 2000 feet AGL
Weather: no significant weather observed at this time

METAR text: WIII 041000Z 06011KT 9999 FEW020 31/25 Q1007 NOSIG
Conditions at: WIII (SOEKARNO-HATTA I, ID) observed 1000 UTC 04 July 2022
Temperature: 31.0°C (88°F)
Dewpoint: 25.0°C (77°F) [RH = 71%]
Pressure (altimeter): 29.73 inches Hg (1007.0 mb)
Winds: from the ENE (60 degrees) at 13 MPH (11 knots; 5.7 m/s)
Visibility: 6 or more miles (10+ km)
Ceiling: at least 12,000 feet AGL
Clouds: few clouds at 2000 feet AGL
Weather: no significant weather observed at this time

METAR text: WIII 040930Z 06014KT 9999 FEW020 31/25 Q1007 NOSIG
Conditions at: WIII (SOEKARNO-HATTA I, ID) observed 0930 UTC 04 July 2022
Temperature: 31.0°C (88°F)
Dewpoint: 25.0°C (77°F) [RH = 71%]
Pressure (altimeter): 29.73 inches Hg (1007.0 mb)
Winds: from the ENE (60 degrees) at 16 MPH (14 knots; 7.2 m/s)
Visibility: 6 or more miles (10+ km)
Ceiling: at least 12,000 feet AGL
Clouds: few clouds at 2000 feet AGL
Weather: no significant weather observed at this time

METAR text: WIII 040900Z 06015KT 9999 FEW020 31/25 Q1006 NOSIG
Conditions at: WIII (SOEKARNO-HATTA I, ID) observed 0900 UTC 04 July 2022
Temperature: 31.0°C (88°F)
Dewpoint: 25.0°C (77°F) [RH = 71%]
Pressure (altimeter): 29.70 inches Hg (1006.0 mb)
Winds: from the ENE (60 degrees) at 17 MPH (15 knots; 7.7 m/s)
Visibility: 6 or more miles (10+ km)
Ceiling: at least 12,000 feet AGL
Clouds: few clouds at 2000 feet AGL
Weather: no significant weather observed at this time

METAR text: WIII 040830Z 05014KT 9999 FEW020 32/26 Q1006 NOSIG
Conditions at: WIII (SOEKARNO-HATTA I, ID) observed 0830 UTC 04 July 2022
Temperature: 32.0°C (90°F)
Dewpoint: 26.0°C (79°F) [RH = 71%]
Pressure (altimeter): 29.70 inches Hg (1006.0 mb)
Winds: from the NE (50 degrees) at 16 MPH (14 knots; 7.2 m/s)
Visibility: 6 or more miles (10+ km)
Ceiling: at least 12,000 feet AGL
Clouds: few clouds at 2000 feet AGL
Weather: no significant weather observed at this time

METAR text: WIII 040800Z 06015KT 9999 FEW020 32/25 Q1006 NOSIG
Conditions at: WIII (SOEKARNO-HATTA I, ID) observed 0800 UTC 04 July 2022
Temperature: 32.0°C (90°F)
Dewpoint: 25.0°C (77°F) [RH = 67%]
Pressure (altimeter): 29.70 inches Hg (1006.0 mb)
Winds: from the ENE (60 degrees) at 17 MPH (15 knots; 7.7 m/s)
Visibility: 6 or more miles (10+ km)
Ceiling: at least 12,000 feet AGL
Clouds: few clouds at 2000 feet AGL
Weather: no significant weather observed at this time

METAR text: WIII 040730Z 06016KT 9999 FEW022 33/25 Q1006 NOSIG
Conditions at: WIII (SOEKARNO-HATTA I, ID) observed 0730 UTC 04 July 2022
Temperature: 33.0°C (91°F)
Dewpoint: 25.0°C (77°F) [RH = 63%]
Pressure (altimeter): 29.70 inches Hg (1006.0 mb)
Winds: from the ENE (60 degrees) at 18 MPH (16 knots; 8.2 m/s)
Visibility: 6 or more miles (10+ km)
Ceiling: at least 12,000 feet AGL
Clouds: few clouds at 2200 feet AGL
Weather: no significant weather observed at this time

METAR text: WIII 040700Z 06016KT 9999 FEW022 32/25 Q1007 NOSIG
Conditions at: WIII (SOEKARNO-HATTA I, ID) observed 0700 UTC 04 July 2022
Temperature: 32.0°C (90°F)
Dewpoint: 25.0°C (77°F) [RH = 67%]
Pressure (altimeter): 29.73 inches Hg (1007.0 mb)
Winds: from the ENE (60 degrees) at 18 MPH (16 knots; 8.2 m/s)
Visibility: 6 or more miles (10+ km)
Ceiling: at least 12,000 feet AGL
Clouds: few clouds at 2200 feet AGL
Weather: no significant weather observed at this time

METAR text: WIII 040630Z 06017KT 9999 FEW022 33/25 Q1007 NOSIG
Conditions at: WIII (SOEKARNO-HATTA I, ID) observed 0630 UTC 04 July 2022
Temperature: 33.0°C (91°F)
Dewpoint: 25.0°C (77°F) [RH = 63%]
Pressure (altimeter): 29.73 inches Hg (1007.0 mb)
Winds: from the ENE (60 degrees) at 20 MPH (17 knots; 8.7 m/s)
Visibility: 6 or more miles (10+ km)
Ceiling: at least 12,000 feet AGL
Clouds: few clouds at 2200 feet AGL
Weather: no significant weather observed at this time

METAR text: WIII 040600Z 06018KT 9999 FEW022 32/25 Q1007 NOSIG
Conditions at: WIII (SOEKARNO-HATTA I, ID) observed 0600 UTC 04 July 2022
Temperature: 32.0°C (90°F)
Dewpoint: 25.0°C (77°F) [RH = 67%]
Pressure (altimeter): 29.73 inches Hg (1007.0 mb)
Winds: from the ENE (60 degrees) at 21 MPH (18 knots; 9.3 m/s)
Visibility: 6 or more miles (10+ km)
Ceiling: at least 12,000 feet AGL
Clouds: few clouds at 2200 feet AGL
Weather: no significant weather observed at this time

METAR text: WIII 040530Z 06015KT 9999 FEW022 33/25 Q1007 NOSIG
Conditions at: WIII (SOEKARNO-HATTA I, ID) observed 0530 UTC 04 July 2022
Temperature: 33.0°C (91°F)
Dewpoint: 25.0°C (77°F) [RH = 63%]
Pressure (altimeter): 29.73 inches Hg (1007.0 mb)
Winds: from the ENE (60 degrees) at 17 MPH (15 knots; 7.7 m/s)
Visibility: 6 or more miles (10+ km)
Ceiling: at least 12,000 feet AGL
Clouds: few clouds at 2200 feet AGL
Weather: no significant weather observed at this time

METAR text: WIII 040500Z 07018KT 9999 SCT021 32/26 Q1008 NOSIG
Conditions at: WIII (SOEKARNO-HATTA I, ID) observed 0500 UTC 04 July 2022
Temperature: 32.0°C (90°F)
Dewpoint: 26.0°C (79°F) [RH = 71%]
Pressure (altimeter): 29.76 inches Hg (1008.0 mb)
Winds: from the ENE (70 degrees) at 21 MPH (18 knots; 9.3 m/s)
Visibility: 6 or more miles (10+ km)
Ceiling: at least 12,000 feet AGL
Clouds: scattered clouds at 2100 feet AGL
Weather: no significant weather observed at this time

METAR text: WIII 040430Z 06016KT 9999 SCT021 32/26 Q1008 NOSIG
Conditions at: WIII (SOEKARNO-HATTA I, ID) observed 0430 UTC 04 July 2022
Temperature: 32.0°C (90°F)
Dewpoint: 26.0°C (79°F) [RH = 71%]
Pressure (altimeter): 29.76 inches Hg (1008.0 mb)
Winds: from the ENE (60 degrees) at 18 MPH (16 knots; 8.2 m/s)
Visibility: 6 or more miles (10+ km)
Ceiling: at least 12,000 feet AGL
Clouds: scattered clouds at 2100 feet AGL
Weather: no significant weather observed at this time

METAR text: WIII 040400Z 07016KT 9999 SCT021 32/26 Q1008 NOSIG
Conditions at: WIII (SOEKARNO-HATTA I, ID) observed 0400 UTC 04 July 2022
Temperature: 32.0°C (90°F)
Dewpoint: 26.0°C (79°F) [RH = 71%]
Pressure (altimeter): 29.76 inches Hg (1008.0 mb)
Winds: from the ENE (70 degrees) at 18 MPH (16 knots; 8.2 m/s)
Visibility: 6 or more miles (10+ km)
Ceiling: at least 12,000 feet AGL
Clouds: scattered clouds at 2100 feet AGL
Weather: no significant weather observed at this time

METAR text: WIII 040330Z 07012KT 9999 SCT021 31/26 Q1009 NOSIG
Conditions at: WIII (SOEKARNO-HATTA I, ID) observed 0330 UTC 04 July 2022
Temperature: 31.0°C (88°F)
Dewpoint: 26.0°C (79°F) [RH = 75%]
Pressure (altimeter): 29.79 inches Hg (1009.0 mb)
Winds: from the ENE (70 degrees) at 14 MPH (12 knots; 6.2 m/s)
Visibility: 6 or more miles (10+ km)
Ceiling: at least 12,000 feet AGL
Clouds: scattered clouds at 2100 feet AGL
Weather: no significant weather observed at this time

METAR text: WIII 040300Z 06014KT 9999 SCT021 31/26 Q1009 NOSIG
Conditions at: WIII (SOEKARNO-HATTA I, ID) observed 0300 UTC 04 July 2022
Temperature: 31.0°C (88°F)
Dewpoint: 26.0°C (79°F) [RH = 75%]
Pressure (altimeter): 29.79 inches Hg (1009.0 mb)
Winds: from the ENE (60 degrees) at 16 MPH (14 knots; 7.2 m/s)
Visibility: 6 or more miles (10+ km)
Ceiling: at least 12,000 feet AGL
Clouds: scattered clouds at 2100 feet AGL
Weather: no significant weather observed at this time

METAR text: WIII 040230Z 08017KT 9999 FEW022 31/26 Q1009 NOSIG
Conditions at: WIII (SOEKARNO-HATTA I, ID) observed 0230 UTC 04 July 2022
Temperature: 31.0°C (88°F)
Dewpoint: 26.0°C (79°F) [RH = 75%]
Pressure (altimeter): 29.79 inches Hg (1009.0 mb)
Winds: from the E (80 degrees) at 20 MPH (17 knots; 8.7 m/s)
Visibility: 6 or more miles (10+ km)
Ceiling: at least 12,000 feet AGL
Clouds: few clouds at 2200 feet AGL
Weather: no significant weather observed at this time

METAR text: WIII 040200Z 09012KT 9999 FEW021 30/26 Q1009 NOSIG
Conditions at: WIII (SOEKARNO-HATTA I, ID) observed 0200 UTC 04 July 2022
Temperature: 30.0°C (86°F)
Dewpoint: 26.0°C (79°F) [RH = 79%]
Pressure (altimeter): 29.79 inches Hg (1009.0 mb)
Winds: from the E (90 degrees) at 14 MPH (12 knots; 6.2 m/s)
Visibility: 6 or more miles (10+ km)
Ceiling: at least 12,000 feet AGL
Clouds: few clouds at 2100 feet AGL
Weather: no significant weather observed at this time

METAR text: WIII 040130Z 09010KT 9999 FEW021 30/26 Q1009 NOSIG
Conditions at: WIII (SOEKARNO-HATTA I, ID) observed 0130 UTC 04 July 2022
Temperature: 30.0°C (86°F)
Dewpoint: 26.0°C (79°F) [RH = 79%]
Pressure (altimeter): 29.79 inches Hg (1009.0 mb)
Winds: from the E (90 degrees) at 12 MPH (10 knots; 5.1 m/s)
Visibility: 6 or more miles (10+ km)
Ceiling: at least 12,000 feet AGL
Clouds: few clouds at 2100 feet AGL
Weather: no significant weather observed at this time

METAR text: WIII 040100Z 09010KT 9999 FEW021 29/26 Q1009 NOSIG
Conditions at: WIII (SOEKARNO-HATTA I, ID) observed 0100 UTC 04 July 2022
Temperature: 29.0°C (84°F)
Dewpoint: 26.0°C (79°F) [RH = 84%]
Pressure (altimeter): 29.79 inches Hg (1009.0 mb)
Winds: from the E (90 degrees) at 12 MPH (10 knots; 5.1 m/s)
Visibility: 6 or more miles (10+ km)
Ceiling: at least 12,000 feet AGL
Clouds: few clouds at 2100 feet AGL
Weather: no significant weather observed at this time

METAR text: WIII 040030Z 10008KT 9000 FEW020 28/26 Q1009 NOSIG
Conditions at: WIII (SOEKARNO-HATTA I, ID) observed 0030 UTC 04 July 2022
Temperature: 28.0°C (82°F)
Dewpoint: 26.0°C (79°F) [RH = 89%]
Pressure (altimeter): 29.79 inches Hg (1009.0 mb)
Winds: from the E (100 degrees) at 9 MPH (8 knots; 4.1 m/s)
Visibility: 6 miles ( 9 km)
Ceiling: at least 12,000 feet AGL
Clouds: few clouds at 2000 feet AGL
Weather: no significant weather observed at this time

METAR text: WIII 040000Z 11007KT 9000 FEW020 27/26 Q1008 NOSIG
Conditions at: WIII (SOEKARNO-HATTA I, ID) observed 0000 UTC 04 July 2022
Temperature: 27.0°C (81°F)
Dewpoint: 26.0°C (79°F) [RH = 94%]
Pressure (altimeter): 29.76 inches Hg (1008.0 mb)
Winds: from the ESE (110 degrees) at 8 MPH (7 knots; 3.6 m/s)
Visibility: 6 miles ( 9 km)
Ceiling: at least 12,000 feet AGL
Clouds: few clouds at 2000 feet AGL
Weather: no significant weather observed at this time

METAR text: WIII 032330Z 11008KT 7000 FEW020 27/25 Q1008 NOSIG
Conditions at: WIII (SOEKARNO-HATTA I, ID) observed 2330 UTC 03 July 2022
Temperature: 27.0°C (81°F)
Dewpoint: 25.0°C (77°F) [RH = 89%]
Pressure (altimeter): 29.76 inches Hg (1008.0 mb)
Winds: from the ESE (110 degrees) at 9 MPH (8 knots; 4.1 m/s)
Visibility: 4 miles ( 7 km)
Ceiling: at least 12,000 feet AGL
Clouds: few clouds at 2000 feet AGL
Weather: no significant weather observed at this time

METAR text: WIII 032300Z 10007KT 6000 FEW020 27/25 Q1008 NOSIG
Conditions at: WIII (SOEKARNO-HATTA I, ID) observed 2300 UTC 03 July 2022
Temperature: 27.0°C (81°F)
Dewpoint: 25.0°C (77°F) [RH = 89%]
Pressure (altimeter): 29.76 inches Hg (1008.0 mb)
Winds: from the E (100 degrees) at 8 MPH (7 knots; 3.6 m/s)
Visibility: 4 miles ( 6 km)
Ceiling: at least 12,000 feet AGL
Clouds: few clouds at 2000 feet AGL
Weather: no significant weather observed at this time

METAR text: WIII 032230Z 10008KT 6000 FEW020 27/25 Q1007 NOSIG
Conditions at: WIII (SOEKARNO-HATTA I, ID) observed 2230 UTC 03 July 2022
Temperature: 27.0°C (81°F)
Dewpoint: 25.0°C (77°F) [RH = 89%]
Pressure (altimeter): 29.73 inches Hg (1007.0 mb)
Winds: from the E (100 degrees) at 9 MPH (8 knots; 4.1 m/s)
Visibility: 4 miles ( 6 km)
Ceiling: at least 12,000 feet AGL
Clouds: few clouds at 2000 feet AGL
Weather: no significant weather observed at this time

METAR text: WIII 032200Z 10008KT 5000 HZ SCT020 27/26 Q1007 RERA NOSIG
Conditions at: WIII (SOEKARNO-HATTA I, ID) observed 2200 UTC 03 July 2022
Temperature: 27.0°C (81°F)
Dewpoint: 26.0°C (79°F) [RH = 94%]
Pressure (altimeter): 29.73 inches Hg (1007.0 mb)
Winds: from the E (100 degrees) at 9 MPH (8 knots; 4.1 m/s)
Visibility: 3 miles ( 5 km)
Ceiling: at least 12,000 feet AGL
Clouds: scattered clouds at 2000 feet AGL
Weather: HZ  (haze)

METAR text: WIII 032130Z 12007KT 5000 -RA BKN020 28/26 Q1007 NOSIG
Conditions at: WIII (SOEKARNO-HATTA I, ID) observed 2130 UTC 03 July 2022
Temperature: 28.0°C (82°F)
Dewpoint: 26.0°C (79°F) [RH = 89%]
Pressure (altimeter): 29.73 inches Hg (1007.0 mb)
Winds: from the ESE (120 degrees) at 8 MPH (7 knots; 3.6 m/s)
Visibility: 3 miles ( 5 km)
Ceiling: 2000 feet AGL
Clouds: broken clouds at 2000 feet AGL
Weather: -RA  (light rain)

METAR text: WIII 032100Z 10004KT 5000 HZ BKN020 27/26 Q1007 NOSIG
Conditions at: WIII (SOEKARNO-HATTA I, ID) observed 2100 UTC 03 July 2022
Temperature: 27.0°C (81°F)
Dewpoint: 26.0°C (79°F) [RH = 94%]
Pressure (altimeter): 29.73 inches Hg (1007.0 mb)
Winds: from the E (100 degrees) at 5 MPH (4 knots; 2.1 m/s)
Visibility: 3 miles ( 5 km)
Ceiling: 2000 feet AGL
Clouds: broken clouds at 2000 feet AGL
Weather: HZ  (haze)

METAR text: WIII 032030Z VRB03KT 5000 HZ SCT020 27/26 Q1007 NOSIG
Conditions at: WIII (SOEKARNO-HATTA I, ID) observed 2030 UTC 03 July 2022
Temperature: 27.0°C (81°F)
Dewpoint: 26.0°C (79°F) [RH = 94%]
Pressure (altimeter): 29.73 inches Hg (1007.0 mb)
Winds: variable direction winds at 3 MPH (3 knots; 1.5 m/s)
Visibility: 3 miles ( 5 km)
Ceiling: at least 12,000 feet AGL
Clouds: scattered clouds at 2000 feet AGL
Weather: HZ  (haze)

METAR text: WIII 032000Z 10005KT 5000 HZ SCT020 27/26 Q1007 NOSIG
Conditions at: WIII (SOEKARNO-HATTA I, ID) observed 2000 UTC 03 July 2022
Temperature: 27.0°C (81°F)
Dewpoint: 26.0°C (79°F) [RH = 94%]
Pressure (altimeter): 29.73 inches Hg (1007.0 mb)
Winds: from the E (100 degrees) at 6 MPH (5 knots; 2.6 m/s)
Visibility: 3 miles ( 5 km)
Ceiling: at least 12,000 feet AGL
Clouds: scattered clouds at 2000 feet AGL
Weather: HZ  (haze)

METAR text: WIII 031930Z 07005KT 5000 HZ FEW020 27/26 Q1007 NOSIG
Conditions at: WIII (SOEKARNO-HATTA I, ID) observed 1930 UTC 03 July 2022
Temperature: 27.0°C (81°F)
Dewpoint: 26.0°C (79°F) [RH = 94%]
Pressure (altimeter): 29.73 inches Hg (1007.0 mb)
Winds: from the ENE (70 degrees) at 6 MPH (5 knots; 2.6 m/s)
Visibility: 3 miles ( 5 km)
Ceiling: at least 12,000 feet AGL
Clouds: few clouds at 2000 feet AGL
Weather: HZ  (haze)

METAR text: WIII 031900Z 11004KT 5000 HZ FEW020 28/26 Q1007 NOSIG
Conditions at: WIII (SOEKARNO-HATTA I, ID) observed 1900 UTC 03 July 2022
Temperature: 28.0°C (82°F)
Dewpoint: 26.0°C (79°F) [RH = 89%]
Pressure (altimeter): 29.73 inches Hg (1007.0 mb)
Winds: from the ESE (110 degrees) at 5 MPH (4 knots; 2.1 m/s)
Visibility: 3 miles ( 5 km)
Ceiling: at least 12,000 feet AGL
Clouds: few clouds at 2000 feet AGL
Weather: HZ  (haze)

METAR text: WIII 031830Z VRB04KT 5000 HZ SCT020 28/26 Q1008 NOSIG
Conditions at: WIII (SOEKARNO-HATTA I, ID) observed 1830 UTC 03 July 2022
Temperature: 28.0°C (82°F)
Dewpoint: 26.0°C (79°F) [RH = 89%]
Pressure (altimeter): 29.76 inches Hg (1008.0 mb)
Winds: variable direction winds at 5 MPH (4 knots; 2.1 m/s)
Visibility: 3 miles ( 5 km)
Ceiling: at least 12,000 feet AGL
Clouds: scattered clouds at 2000 feet AGL
Weather: HZ  (haze)

METAR text: WIII 031800Z VRB04KT 5000 HZ SCT020 28/26 Q1008 NOSIG
Conditions at: WIII (SOEKARNO-HATTA I, ID) observed 1800 UTC 03 July 2022
Temperature: 28.0°C (82°F)
Dewpoint: 26.0°C (79°F) [RH = 89%]
Pressure (altimeter): 29.76 inches Hg (1008.0 mb)
Winds: variable direction winds at 5 MPH (4 knots; 2.1 m/s)
Visibility: 3 miles ( 5 km)
Ceiling: at least 12,000 feet AGL
Clouds: scattered clouds at 2000 feet AGL
Weather: HZ  (haze)

METAR text: WIII 031730Z 14005KT 5000 HZ SCT020 28/26 Q1008 NOSIG
Conditions at: WIII (SOEKARNO-HATTA I, ID) observed 1730 UTC 03 July 2022
Temperature: 28.0°C (82°F)
Dewpoint: 26.0°C (79°F) [RH = 89%]
Pressure (altimeter): 29.76 inches Hg (1008.0 mb)
Winds: from the SE (140 degrees) at 6 MPH (5 knots; 2.6 m/s)
Visibility: 3 miles ( 5 km)
Ceiling: at least 12,000 feet AGL
Clouds: scattered clouds at 2000 feet AGL
Weather: HZ  (haze)

METAR text: WIII 031700Z VRB05KT 5000 HZ SCT020 28/26 Q1008 NOSIG
Conditions at: WIII (SOEKARNO-HATTA I, ID) observed 1700 UTC 03 July 2022
Temperature: 28.0°C (82°F)
Dewpoint: 26.0°C (79°F) [RH = 89%]
Pressure (altimeter): 29.76 inches Hg (1008.0 mb)
Winds: variable direction winds at 6 MPH (5 knots; 2.6 m/s)
Visibility: 3 miles ( 5 km)
Ceiling: at least 12,000 feet AGL
Clouds: scattered clouds at 2000 feet AGL
Weather: HZ  (haze)

METAR text: WIII 031630Z VRB05KT 5000 HZ SCT020 28/26 Q1008 NOSIG
Conditions at: WIII (SOEKARNO-HATTA I, ID) observed 1630 UTC 03 July 2022
Temperature: 28.0°C (82°F)
Dewpoint: 26.0°C (79°F) [RH = 89%]
Pressure (altimeter): 29.76 inches Hg (1008.0 mb)
Winds: variable direction winds at 6 MPH (5 knots; 2.6 m/s)
Visibility: 3 miles ( 5 km)
Ceiling: at least 12,000 feet AGL
Clouds: scattered clouds at 2000 feet AGL
Weather: HZ  (haze)

METAR text: WIII 031600Z VRB04KT 5000 HZ SCT020 28/26 Q1008 NOSIG
Conditions at: WIII (SOEKARNO-HATTA I, ID) observed 1600 UTC 03 July 2022
Temperature: 28.0°C (82°F)
Dewpoint: 26.0°C (79°F) [RH = 89%]
Pressure (altimeter): 29.76 inches Hg (1008.0 mb)
Winds: variable direction winds at 5 MPH (4 knots; 2.1 m/s)
Visibility: 3 miles ( 5 km)
Ceiling: at least 12,000 feet AGL
Clouds: scattered clouds at 2000 feet AGL
Weather: HZ  (haze)

METAR text: WIII 031530Z VRB04KT 5000 HZ SCT020 28/26 Q1008 NOSIG
Conditions at: WIII (SOEKARNO-HATTA I, ID) observed 1530 UTC 03 July 2022
Temperature: 28.0°C (82°F)
Dewpoint: 26.0°C (79°F) [RH = 89%]
Pressure (altimeter): 29.76 inches Hg (1008.0 mb)
Winds: variable direction winds at 5 MPH (4 knots; 2.1 m/s)
Visibility: 3 miles ( 5 km)
Ceiling: at least 12,000 feet AGL
Clouds: scattered clouds at 2000 feet AGL
Weather: HZ  (haze)

METAR text: WIII 031500Z VRB04KT 5000 HZ SCT020 27/26 Q1008 NOSIG
Conditions at: WIII (SOEKARNO-HATTA I, ID) observed 1500 UTC 03 July 2022
Temperature: 27.0°C (81°F)
Dewpoint: 26.0°C (79°F) [RH = 94%]
Pressure (altimeter): 29.76 inches Hg (1008.0 mb)
Winds: variable direction winds at 5 MPH (4 knots; 2.1 m/s)
Visibility: 3 miles ( 5 km)
Ceiling: at least 12,000 feet AGL
Clouds: scattered clouds at 2000 feet AGL
Weather: HZ  (haze)

METAR text: WIII 031430Z VRB02KT 5000 HZ SCT020 28/26 Q1008 NOSIG
Conditions at: WIII (SOEKARNO-HATTA I, ID) observed 1430 UTC 03 July 2022
Temperature: 28.0°C (82°F)
Dewpoint: 26.0°C (79°F) [RH = 89%]
Pressure (altimeter): 29.76 inches Hg (1008.0 mb)
Winds: variable direction winds at 2 MPH (2 knots; 1.0 m/s)
Visibility: 3 miles ( 5 km)
Ceiling: at least 12,000 feet AGL
Clouds: scattered clouds at 2000 feet AGL
Weather: HZ  (haze)

METAR text: WIII 031400Z 27004KT 5000 HZ SCT020 28/26 Q1008 NOSIG
Conditions at: WIII (SOEKARNO-HATTA I, ID) observed 1400 UTC 03 July 2022
Temperature: 28.0°C (82°F)
Dewpoint: 26.0°C (79°F) [RH = 89%]
Pressure (altimeter): 29.76 inches Hg (1008.0 mb)
Winds: from the W (270 degrees) at 5 MPH (4 knots; 2.1 m/s)
Visibility: 3 miles ( 5 km)
Ceiling: at least 12,000 feet AGL
Clouds: scattered clouds at 2000 feet AGL
Weather: HZ  (haze)

METAR text: WIII 031330Z 26006KT 5000 HZ SCT020 28/27 Q1007 NOSIG
Conditions at: WIII (SOEKARNO-HATTA I, ID) observed 1330 UTC 03 July 2022
Temperature: 28.0°C (82°F)
Dewpoint: 27.0°C (81°F) [RH = 94%]
Pressure (altimeter): 29.73 inches Hg (1007.0 mb)
Winds: from the W (260 degrees) at 7 MPH (6 knots; 3.1 m/s)
Visibility: 3 miles ( 5 km)
Ceiling: at least 12,000 feet AGL
Clouds: scattered clouds at 2000 feet AGL
Weather: HZ  (haze)

Forecast for: WIII (SOEKARNO-HATTA I, ID)
Text: TAF WIII 042300Z 0500/0606 06013KT 9999 FEW020
Forecast period: 0000 to 1400 UTC 05 July 2022
Forecast type: FROM: standard forecast or significant change
Winds: from the ENE (60 degrees) at 15 MPH (13 knots; 6.7 m/s)
Visibility: 6 or more miles (10+ km)
Ceiling: at least 12,000 feet AGL
Clouds: few clouds at 2000 feet AGL
Weather: no significant weather forecast for this period
Text: BECMG 0514/0516 18003KT 4000 HZ
Forecast period: 1400 UTC 05 July 2022 to 0600 UTC 06 July 2022
Forecast type: BECOMING: Conditions expected to become as follows by 1600 UTC 05 July 2022
Winds: from the S (180 degrees) at 3 MPH (3 knots; 1.5 m/s)
Visibility: 2.49 miles (4.01 km)
Ceiling: at least 12,000 feet AGL
Clouds: few clouds at 2000 feet AGL
Weather: HZ  (haze)